Time;durP1;ratioP1;P1;durP2;ratioP2;P2;SDS_P1;SDS_P2;PMS_P1;PMS_P2;Temp;Humidity;BMP_temperature;BMP_pressure;BME280_temperature;BME280_humidity;BME280_pressure;Samples;Min_cycle;Max_cycle;Signal;HPM_P1;HPM_P2
2021/12/13 00:01:39;;;;;;;61.03;26.50;;;10.50;99.90;;;;;;5032313;28;20546;-66
2021/12/13 00:04:17;;;;;;;74.00;29.58;;;10.50;99.90;;;;;;5036834;28;20107;-66
2021/12/13 00:06:54;;;;;;;64.10;28.15;;;10.50;99.90;;;;;;5036676;28;20033;-66
2021/12/13 00:09:24;;;;;;;70.47;28.65;;;10.50;99.90;;;;;;5040219;28;21891;-67
2021/12/13 00:11:54;;;;;;;60.38;27.00;;;10.50;99.90;;;;;;5033627;28;20047;-65
2021/12/13 00:14:27;;;;;;;55.92;26.02;;;10.40;99.90;;;;;;5035256;28;20049;-65
2021/12/13 00:17:02;;;;;;;66.00;27.67;;;10.50;99.90;;;;;;5035629;28;20045;-65
2021/12/13 00:19:36;;;;;;;58.25;25.00;;;10.50;99.90;;;;;;5030904;28;20115;-65
2021/12/13 00:22:07;;;;;;;52.08;24.95;;;10.50;99.90;;;;;;5034347;28;20052;-66
2021/12/13 00:24:39;;;;;;;51.15;24.95;;;10.50;99.90;;;;;;5038784;28;20037;-65
2021/12/13 00:27:12;;;;;;;55.30;23.77;;;10.50;99.90;;;;;;5036178;28;20038;-65
2021/12/13 00:30:09;;;;;;;55.83;24.52;;;10.50;99.90;;;;;;5033639;28;20167;-64
2021/12/13 00:32:58;;;;;;;49.25;23.30;;;10.50;99.90;;;;;;5032689;28;20049;-65
2021/12/13 00:35:31;;;;;;;54.15;23.55;;;10.50;99.90;;;;;;5031390;28;20048;-67
2021/12/13 00:38:01;;;;;;;55.72;24.67;;;10.50;99.90;;;;;;5034071;28;20056;-65
2021/12/13 00:40:34;;;;;;;53.28;23.85;;;10.50;99.90;;;;;;5033361;28;20034;-65
2021/12/13 00:43:10;;;;;;;49.95;23.65;;;10.50;99.90;;;;;;5036873;28;20124;-65
2021/12/13 00:45:40;;;;;;;54.22;24.58;;;10.50;99.90;;;;;;5030376;28;20488;-65
2021/12/13 00:48:07;;;;;;;63.78;26.83;;;10.50;99.90;;;;;;5038849;28;20063;-65
2021/12/13 00:50:47;;;;;;;52.33;23.45;;;10.50;99.90;;;;;;5034681;28;20128;-66
2021/12/13 00:53:18;;;;;;;56.47;25.35;;;10.50;99.90;;;;;;5036550;28;20045;-65
2021/12/13 00:55:45;;;;;;;50.55;23.55;;;10.50;99.90;;;;;;5036405;28;20058;-66
2021/12/13 00:58:12;;;;;;;55.03;24.52;;;10.50;99.90;;;;;;5037125;28;20045;-66
2021/12/13 01:00:44;;;;;;;58.33;25.40;;;10.50;99.90;;;;;;5034457;28;20443;-67
2021/12/13 01:03:14;;;;;;;49.25;23.50;;;10.50;99.90;;;;;;5033355;28;20132;-66
2021/12/13 01:05:44;;;;;;;51.55;24.17;;;10.50;99.90;;;;;;5038612;28;20563;-66
2021/12/13 01:08:15;;;;;;;55.67;23.80;;;10.50;99.90;;;;;;5030381;28;20141;-66
2021/12/13 01:10:53;;;;;;;47.40;22.83;;;10.50;99.90;;;;;;5033450;28;20053;-66
2021/12/13 01:13:24;;;;;;;58.78;25.25;;;10.50;99.90;;;;;;5038659;28;20052;-65
2021/12/13 01:16:02;;;;;;;56.72;24.90;;;10.50;99.90;;;;;;5031669;28;20095;-66
2021/12/13 01:19:02;;;;;;;53.03;22.70;;;10.50;99.90;;;;;;5036734;28;20170;-66
2021/12/13 01:21:42;;;;;;;43.28;19.92;;;10.50;99.90;;;;;;5034767;28;20122;-66
2021/12/13 01:24:15;;;;;;;50.55;22.65;;;10.50;99.90;;;;;;5035555;28;20055;-67
2021/12/13 01:26:48;;;;;;;49.88;22.58;;;10.50;99.90;;;;;;5030139;28;20053;-67
2021/12/13 01:29:21;;;;;;;39.78;19.90;;;10.50;99.90;;;;;;5038299;28;20056;-66
2021/12/13 01:31:54;;;;;;;53.83;22.08;;;10.50;99.90;;;;;;5031713;28;20399;-66
2021/12/13 01:34:22;;;;;;;49.03;21.90;;;10.50;99.90;;;;;;5032202;28;20664;-65
2021/12/13 01:37:00;;;;;;;49.13;22.58;;;10.50;99.90;;;;;;5035506;28;20152;-67
2021/12/13 01:39:29;;;;;;;42.70;20.70;;;10.50;99.90;;;;;;5041502;28;20369;-67
2021/12/13 01:42:09;;;;;;;51.22;22.67;;;10.50;99.90;;;;;;5038422;28;20449;-65
2021/12/13 01:44:40;;;;;;;51.88;21.95;;;10.50;99.90;;;;;;5039615;28;20045;-66
2021/12/13 01:47:09;;;;;;;43.00;21.02;;;10.50;99.90;;;;;;5034824;28;20045;-66
2021/12/13 01:49:51;;;;;;;40.72;20.23;;;10.50;99.90;;;;;;5032652;28;20048;-66
2021/12/13 01:52:28;;;;;;;44.40;21.20;;;10.50;99.90;;;;;;5035312;28;20033;-68
2021/12/13 01:54:57;;;;;;;43.70;21.80;;;10.50;99.90;;;;;;5047657;28;20485;-66
2021/12/13 01:57:37;;;;;;;39.97;20.55;;;10.50;99.90;;;;;;5040295;28;20095;-67
2021/12/13 02:00:17;;;;;;;47.30;22.52;;;10.50;99.90;;;;;;5035789;28;20041;-66
2021/12/13 02:02:46;;;;;;;42.53;21.38;;;10.50;99.90;;;;;;5034598;28;20190;-67
2021/12/13 02:05:22;;;;;;;40.78;20.45;;;10.50;99.90;;;;;;5036771;28;20108;-66
2021/12/13 02:08:06;;;;;;;45.90;22.25;;;10.50;99.90;;;;;;5057312;28;20505;-66
2021/12/13 02:10:42;;;;;;;40.00;21.08;;;10.50;99.90;;;;;;5044426;28;20369;-66
2021/12/13 02:13:16;;;;;;;39.70;20.50;;;10.50;99.90;;;;;;5031340;28;20129;-67
2021/12/13 02:18:33;;;;;;;35.40;18.83;;;10.40;99.90;;;;;;5030434;28;20171;-66
2021/12/13 02:21:11;;;;;;;32.53;19.00;;;10.40;99.90;;;;;;5032579;28;20053;-66
2021/12/13 02:23:41;;;;;;;33.50;18.20;;;10.40;99.90;;;;;;5038053;28;20063;-66
2021/12/13 02:26:08;;;;;;;34.88;20.00;;;10.50;99.90;;;;;;5041861;28;20063;-66
2021/12/13 02:28:38;;;;;;;35.70;19.52;;;10.40;99.90;;;;;;5037141;28;20129;-66
2021/12/13 02:31:15;;;;;;;32.58;18.92;;;10.40;99.90;;;;;;5032390;28;20068;-67
2021/12/13 02:33:53;;;;;;;32.80;18.95;;;10.40;99.90;;;;;;5031054;28;20064;-66
2021/12/13 02:36:27;;;;;;;32.80;17.42;;;10.40;99.90;;;;;;5039930;28;20186;-67
2021/12/13 02:38:56;;;;;;;28.87;17.10;;;10.30;99.90;;;;;;5036520;28;20060;-65
2021/12/13 02:41:24;;;;;;;30.40;17.33;;;10.30;99.90;;;;;;5033579;28;20484;-66
2021/12/13 02:43:54;;;;;;;30.73;16.02;;;10.30;99.90;;;;;;5038739;28;20045;-66
2021/12/13 02:46:20;;;;;;;30.00;16.52;;;10.30;99.90;;;;;;5033799;28;20460;-67
2021/12/13 02:48:55;;;;;;;35.03;16.98;;;10.30;99.90;;;;;;5044782;28;20049;-66
2021/12/13 02:51:29;;;;;;;28.45;15.25;;;10.30;99.90;;;;;;5035071;28;20504;-66
2021/12/13 02:54:17;;;;;;;23.38;14.07;;;10.20;99.90;;;;;;5039570;28;20161;-65
2021/12/13 02:56:48;;;;;;;25.60;14.40;;;10.20;99.90;;;;;;5042402;28;20072;-66
2021/12/13 02:59:14;;;;;;;25.80;14.02;;;10.20;99.90;;;;;;5038434;28;20476;-67
2021/12/13 03:01:49;;;;;;;24.13;13.57;;;10.20;99.90;;;;;;5032106;28;20125;-66
2021/12/13 03:04:19;;;;;;;26.23;13.32;;;10.20;99.90;;;;;;5039442;28;20041;-65
2021/12/13 03:07:03;;;;;;;22.98;12.25;;;10.10;99.90;;;;;;5039651;28;20038;-66
2021/12/13 03:09:32;;;;;;;19.30;11.45;;;10.10;99.90;;;;;;5035154;28;20045;-67
2021/12/13 03:12:00;;;;;;;22.95;11.65;;;10.10;99.90;;;;;;5032855;28;20049;-67
2021/12/13 03:14:32;;;;;;;22.75;11.63;;;10.10;99.90;;;;;;5032357;28;20043;-67
2021/12/13 03:17:06;;;;;;;21.65;10.73;;;10.10;99.90;;;;;;5042155;28;20111;-64
2021/12/13 03:19:31;;;;;;;19.13;9.23;;;10.10;99.90;;;;;;5034572;28;20056;-64
2021/12/13 03:22:26;;;;;;;18.92;8.75;;;10.10;99.90;;;;;;5039455;28;20114;-64
2021/12/13 03:25:12;;;;;;;17.25;8.57;;;10.10;99.90;;;;;;5031822;28;20095;-66
2021/12/13 03:28:10;;;;;;;15.20;8.30;;;10.00;99.90;;;;;;5037980;28;20045;-65
2021/12/13 03:31:01;;;;;;;20.42;8.65;;;10.00;99.90;;;;;;5039740;28;20045;-65
2021/12/13 03:34:00;;;;;;;17.67;7.90;;;10.00;99.90;;;;;;5041501;28;20068;-64
2021/12/13 03:36:57;;;;;;;14.50;7.50;;;10.00;99.90;;;;;;5032655;28;20089;-65
2021/12/13 03:39:33;;;;;;;14.07;7.65;;;10.00;99.90;;;;;;5043884;28;20139;-65
2021/12/13 03:42:01;;;;;;;17.27;8.02;;;10.00;99.90;;;;;;5033635;28;20050;-66
2021/12/13 03:44:34;;;;;;;16.60;8.30;;;10.00;99.90;;;;;;5035221;28;20057;-67
2021/12/13 03:47:08;;;;;;;17.30;9.45;;;10.00;99.90;;;;;;5034596;28;20088;-66
2021/12/13 03:49:40;;;;;;;15.98;9.35;;;10.00;99.90;;;;;;5044312;28;20045;-67
2021/12/13 03:52:07;;;;;;;17.95;10.52;;;9.90;99.90;;;;;;5038356;28;20046;-66
2021/12/13 03:54:37;;;;;;;22.63;11.05;;;10.00;99.90;;;;;;5033343;28;20045;-66
2021/12/13 03:57:03;;;;;;;18.60;10.70;;;9.90;99.90;;;;;;5041167;28;20048;-65
2021/12/13 03:59:33;;;;;;;18.77;10.10;;;9.90;99.90;;;;;;5040931;28;20037;-66
2021/12/13 04:02:04;;;;;;;19.15;10.95;;;9.90;99.90;;;;;;5029648;28;20088;-66
2021/12/13 04:04:38;;;;;;;21.45;11.35;;;9.90;99.90;;;;;;5043539;28;20041;-65
2021/12/13 04:07:17;;;;;;;21.35;11.60;;;9.80;99.90;;;;;;5036363;28;20380;-64
2021/12/13 04:09:46;;;;;;;18.50;11.00;;;9.90;99.90;;;;;;5045063;28;20459;-65
2021/12/13 04:12:15;;;;;;;19.70;10.85;;;9.80;99.90;;;;;;5034925;28;20077;-65
2021/12/13 04:14:56;;;;;;;17.73;10.40;;;9.80;99.90;;;;;;5037446;28;20829;-65
2021/12/13 04:17:37;;;;;;;20.88;10.85;;;9.90;99.90;;;;;;5037089;28;20404;-68
2021/12/13 04:20:11;;;;;;;18.38;10.23;;;9.90;99.90;;;;;;5040004;28;20464;-65
2021/12/13 04:22:45;;;;;;;20.73;10.97;;;9.90;99.90;;;;;;5034768;28;20033;-65
2021/12/13 04:25:16;;;;;;;16.35;9.23;;;9.90;99.90;;;;;;5035988;28;20081;-65
2021/12/13 04:27:53;;;;;;;14.68;8.85;;;9.80;99.90;;;;;;5019104;28;20069;-64
2021/12/13 04:30:27;;;;;;;16.58;8.18;;;9.90;99.90;;;;;;5033984;28;20053;-65
2021/12/13 04:33:02;;;;;;;16.33;7.97;;;9.90;99.90;;;;;;5035403;28;20168;-64
2021/12/13 04:35:30;;;;;;;14.23;8.27;;;9.90;99.90;;;;;;5035220;28;20044;-65
2021/12/13 04:37:58;;;;;;;13.13;8.15;;;9.90;99.90;;;;;;5040633;28;20476;-65
2021/12/13 04:40:35;;;;;;;15.25;8.02;;;9.90;99.90;;;;;;5036586;28;20116;-65
2021/12/13 04:43:03;;;;;;;12.45;7.00;;;9.90;99.90;;;;;;5031232;28;20046;-66
2021/12/13 04:45:31;;;;;;;13.50;7.30;;;9.90;99.90;;;;;;5040843;28;20041;-65
2021/12/13 04:48:08;;;;;;;14.32;7.20;;;9.90;99.90;;;;;;5040289;28;20041;-64
2021/12/13 04:50:54;;;;;;;15.98;7.55;;;9.90;99.90;;;;;;5038408;28;20045;-67
2021/12/13 04:53:30;;;;;;;13.50;7.05;;;9.90;99.90;;;;;;5037865;28;20045;-65
2021/12/13 04:56:00;;;;;;;12.85;7.10;;;9.90;99.90;;;;;;5036078;28;20044;-65
2021/12/13 04:58:28;;;;;;;13.85;7.22;;;9.90;99.90;;;;;;5035216;28;20055;-67
2021/12/13 05:00:58;;;;;;;14.25;7.18;;;9.90;99.90;;;;;;5027342;28;20060;-66
2021/12/13 05:03:28;;;;;;;12.65;6.88;;;9.90;99.90;;;;;;5033913;28;20053;-66
2021/12/13 05:05:54;;;;;;;15.43;7.43;;;9.90;99.90;;;;;;5034161;28;20053;-65
2021/12/13 05:08:20;;;;;;;12.07;7.15;;;9.90;99.90;;;;;;5030959;28;20442;-65
2021/12/13 05:10:49;;;;;;;16.83;8.43;;;9.90;99.90;;;;;;5042272;28;20154;-65
2021/12/13 05:13:20;;;;;;;14.82;8.00;;;9.90;99.90;;;;;;5030727;28;20108;-65
2021/12/13 05:16:09;;;;;;;12.85;7.47;;;9.90;99.90;;;;;;5035860;28;20418;-65
2021/12/13 05:18:41;;;;;;;15.35;8.15;;;9.90;99.90;;;;;;5039276;28;20345;-67
2021/12/13 05:21:12;;;;;;;14.27;7.93;;;9.90;99.90;;;;;;5036913;28;20056;-65
2021/12/13 05:23:47;;;;;;;13.18;7.20;;;9.90;99.90;;;;;;5043728;28;20105;-65
2021/12/13 05:26:14;;;;;;;;;;;9.90;99.90;;;;;;5032142;28;20069;-64
2021/12/13 05:28:50;;;;;;;13.95;8.65;;;9.90;99.90;;;;;;5043740;28;20012;-66
2021/12/13 05:31:20;;;;;;;15.60;8.82;;;9.90;99.90;;;;;;5035233;28;20064;-64
2021/12/13 05:33:51;;;;;;;13.35;8.48;;;9.90;99.90;;;;;;5040936;28;20115;-64
2021/12/13 05:36:30;;;;;;;15.95;9.27;;;9.90;99.90;;;;;;5038257;28;20041;-65
2021/12/13 05:39:11;;;;;;;17.20;9.05;;;9.90;99.90;;;;;;5030988;28;20073;-72
2021/12/13 05:41:38;;;;;;;15.52;9.68;;;9.90;99.90;;;;;;5032418;28;20337;-72
2021/12/13 05:44:08;;;;;;;17.80;10.30;;;9.90;99.90;;;;;;5032552;28;20052;-75
2021/12/13 05:46:48;;;;;;;19.88;10.07;;;9.90;99.90;;;;;;5029722;28;20052;-76
2021/12/13 05:49:41;;;;;;;17.20;10.65;;;9.90;99.90;;;;;;5038087;28;20045;-72
2021/12/13 05:52:14;;;;;;;16.15;10.32;;;9.90;99.90;;;;;;5040757;28;20045;-75
2021/12/13 05:54:51;;;;;;;18.33;10.55;;;9.80;99.90;;;;;;5022889;28;20081;-74
2021/12/13 05:57:29;;;;;;;18.80;12.02;;;9.90;99.90;;;;;;5035299;28;20048;-75
2021/12/13 06:00:03;;;;;;;19.70;12.07;;;9.90;99.90;;;;;;5033085;28;20460;-75
2021/12/13 06:03:02;;;;;;;19.45;11.77;;;9.90;99.90;;;;;;5044080;28;20045;-74
2021/12/13 06:05:36;;;;;;;19.58;12.15;;;9.90;99.90;;;;;;5033131;28;20045;-78
2021/12/13 06:08:09;;;;;;;19.88;12.38;;;9.90;99.90;;;;;;5033598;28;20175;-76
2021/12/13 06:10:47;;;;;;;22.55;13.10;;;9.90;99.90;;;;;;5031653;28;20572;-74
2021/12/13 06:13:37;;;;;;;22.02;12.32;;;9.90;99.90;;;;;;5035738;28;20045;-74
2021/12/13 06:16:03;;;;;;;19.92;12.85;;;9.90;99.90;;;;;;5027955;28;20103;-74
2021/12/13 06:18:41;;;;;;;21.05;13.88;;;9.90;99.90;;;;;;5019987;28;20065;-73
2021/12/13 06:21:37;;;;;;;21.05;14.25;;;9.90;99.90;;;;;;5049056;28;20041;-72
2021/12/13 06:24:03;;;;;;;22.48;14.70;;;9.90;99.90;;;;;;5045348;28;20701;-72
2021/12/13 06:26:30;;;;;;;22.58;14.85;;;9.90;99.90;;;;;;5039342;28;20136;-74
2021/12/13 06:28:59;;;;;;;22.40;15.40;;;9.90;99.90;;;;;;5044272;28;20087;-72
2021/12/13 06:31:44;;;;;;;26.05;15.35;;;9.90;99.90;;;;;;5042968;28;20087;-73
2021/12/13 06:34:13;;;;;;;24.83;15.02;;;9.80;99.90;;;;;;5032465;28;20136;-69
2021/12/13 06:36:48;;;;;;;23.70;16.00;;;9.90;99.90;;;;;;5042323;28;20163;-74
2021/12/13 06:39:29;;;;;;;25.52;16.08;;;9.90;99.90;;;;;;5042439;28;20118;-72
2021/12/13 06:42:01;;;;;;;24.05;16.65;;;9.90;99.90;;;;;;5034661;28;20052;-73
2021/12/13 06:44:41;;;;;;;25.35;16.92;;;9.90;99.90;;;;;;5051103;28;20775;-72
2021/12/13 06:47:11;;;;;;;26.60;16.92;;;9.90;99.90;;;;;;5034641;28;20175;-72
2021/12/13 06:49:48;;;;;;;26.23;17.77;;;9.90;99.90;;;;;;5027770;28;20053;-73
2021/12/13 06:52:13;;;;;;;27.42;17.40;;;9.80;99.90;;;;;;5029257;28;20061;-72
2021/12/13 06:54:46;;;;;;;25.65;18.13;;;9.90;99.90;;;;;;5062399;28;20067;-72
2021/12/13 06:57:13;;;;;;;28.08;18.95;;;9.90;99.90;;;;;;5048160;28;20144;-72
2021/12/13 07:00:02;;;;;;;27.77;18.27;;;9.80;99.90;;;;;;5031198;28;20037;-73
2021/12/13 07:03:02;;;;;;;29.73;19.42;;;9.80;99.90;;;;;;5032203;28;20529;-71
2021/12/13 07:05:30;;;;;;;29.25;19.50;;;9.80;99.90;;;;;;5032261;28;20052;-72
2021/12/13 07:08:24;;;;;;;29.95;19.60;;;9.80;99.90;;;;;;5028748;28;20452;-72
2021/12/13 07:10:52;;;;;;;28.02;19.17;;;9.80;99.90;;;;;;5028443;28;20479;-72
2021/12/13 07:13:40;;;;;;;29.70;20.02;;;9.80;99.90;;;;;;5034829;28;20103;-72
2021/12/13 07:16:17;;;;;;;27.42;18.77;;;9.80;99.90;;;;;;5049754;28;20122;-72
2021/12/13 07:18:50;;;;;;;31.13;19.88;;;9.80;99.90;;;;;;5049166;28;20041;-72
2021/12/13 07:21:26;;;;;;;29.92;19.70;;;9.80;99.90;;;;;;5045130;28;20041;-72
2021/12/13 07:24:03;;;;;;;27.60;19.90;;;9.80;99.90;;;;;;5038642;28;20049;-72
2021/12/13 07:26:40;;;;;;;29.63;19.88;;;9.90;99.90;;;;;;5042567;28;20049;-72
2021/12/13 07:29:20;;;;;;;28.98;19.65;;;9.90;99.90;;;;;;5043732;28;20502;-72
2021/12/13 07:32:00;;;;;;;32.28;21.05;;;9.80;99.90;;;;;;5035660;28;20116;-72
2021/12/13 07:34:26;;;;;;;30.20;19.73;;;9.90;99.90;;;;;;5046974;28;20492;-72
2021/12/13 07:36:59;;;;;;;30.52;20.13;;;9.80;99.90;;;;;;5047875;28;20041;-73
2021/12/13 07:39:28;;;;;;;29.83;19.73;;;9.90;99.90;;;;;;5042100;28;20049;-73
2021/12/13 07:42:02;;;;;;;28.90;20.20;;;9.90;99.90;;;;;;5031812;28;20094;-72
2021/12/13 07:44:31;;;;;;;28.50;18.35;;;9.90;99.90;;;;;;5042948;28;20436;-72
2021/12/13 07:47:19;;;;;;;29.92;20.25;;;9.80;99.90;;;;;;5045623;28;20046;-72
2021/12/13 07:49:52;;;;;;;31.73;20.50;;;9.80;99.90;;;;;;5016802;28;20143;-72
2021/12/13 07:52:30;;;;;;;32.05;20.67;;;9.80;99.90;;;;;;5026697;28;20136;-72
2021/12/13 07:54:57;;;;;;;31.20;21.13;;;9.80;99.90;;;;;;5032631;28;20083;-71
2021/12/13 07:57:31;;;;;;;29.40;19.23;;;9.80;99.90;;;;;;5048767;28;20124;-72
2021/12/13 07:59:57;;;;;;;28.15;18.80;;;9.80;99.90;;;;;;5038860;28;20068;-72
2021/12/13 08:02:30;;;;;;;27.17;19.38;;;9.80;99.90;;;;;;5042971;28;20106;-72
2021/12/13 08:05:11;;;;;;;28.30;19.65;;;9.80;99.90;;;;;;5048023;28;20036;-70
2021/12/13 08:07:47;;;;;;;27.10;18.40;;;9.90;99.90;;;;;;5041974;28;20106;-71
2021/12/13 08:10:22;;;;;;;26.48;18.52;;;9.90;99.90;;;;;;5029263;28;20085;-70
2021/12/13 08:12:49;;;;;;;;;;;9.80;99.90;;;;;;5033606;28;20473;-70
2021/12/13 08:15:25;;;;;;;28.02;17.73;;;9.80;99.90;;;;;;5047701;28;19932;-70
2021/12/13 08:17:57;;;;;;;29.63;19.40;;;9.80;99.90;;;;;;5030816;28;20051;-71
2021/12/13 08:20:33;;;;;;;27.25;18.33;;;9.90;99.90;;;;;;5047095;28;20045;-72
2021/12/13 08:23:01;;;;;;;28.48;18.90;;;9.90;99.90;;;;;;5043804;28;20385;-72
2021/12/13 08:25:37;;;;;;;24.17;17.55;;;9.90;99.90;;;;;;5029121;28;20521;-72
2021/12/13 08:28:04;;;;;;;23.33;16.95;;;9.80;99.90;;;;;;5039138;28;20123;-72
2021/12/13 08:30:34;;;;;;;25.50;17.25;;;9.90;99.90;;;;;;5048022;28;20492;-72
2021/12/13 08:33:11;;;;;;;29.02;17.85;;;9.90;99.90;;;;;;5047601;28;20479;-72
2021/12/13 08:35:50;;;;;;;24.65;17.55;;;9.90;99.90;;;;;;5045830;28;20057;-70
2021/12/13 08:38:38;;;;;;;27.38;17.48;;;9.90;99.90;;;;;;5047727;28;20048;-70
2021/12/13 08:41:25;;;;;;;24.13;16.45;;;9.90;99.90;;;;;;5045259;28;20045;-71
2021/12/13 08:44:23;;;;;;;24.13;17.17;;;10.00;99.90;;;;;;5029536;28;20072;-70
2021/12/13 08:46:54;;;;;;;25.90;17.75;;;10.00;99.90;;;;;;5016158;28;20126;-71
2021/12/13 08:49:26;;;;;;;25.40;16.95;;;10.00;99.90;;;;;;5046923;28;20087;-71
2021/12/13 08:52:21;;;;;;;26.90;17.63;;;10.00;99.90;;;;;;5039961;28;20056;-71
2021/12/13 08:55:12;;;;;;;25.55;17.25;;;10.00;99.90;;;;;;5040273;28;20076;-71
2021/12/13 08:57:53;;;;;;;24.25;16.27;;;10.10;99.90;;;;;;5027755;28;20056;-72
2021/12/13 09:01:00;;;;;;;24.25;17.30;;;10.00;99.90;;;;;;5030192;28;20176;-72
2021/12/13 09:03:38;;;;;;;25.73;17.52;;;10.10;99.90;;;;;;5044298;28;20115;-72
2021/12/13 09:06:16;;;;;;;25.17;17.25;;;10.10;99.90;;;;;;5026885;28;20072;-71
2021/12/13 09:08:59;;;;;;;26.85;16.33;;;10.10;99.90;;;;;;5028556;28;20361;-71
2021/12/13 09:11:31;;;;;;;25.60;16.80;;;10.10;99.90;;;;;;5027692;28;20049;-71
2021/12/13 09:14:11;;;;;;;24.02;16.73;;;10.10;99.90;;;;;;5028608;28;20048;-71
2021/12/13 09:16:55;;;;;;;22.77;16.55;;;10.10;99.90;;;;;;5027745;28;20434;-71
2021/12/13 09:19:26;;;;;;;25.52;16.02;;;10.10;99.90;;;;;;5026114;28;20084;-71
2021/12/13 09:21:57;;;;;;;25.08;16.00;;;10.10;99.90;;;;;;5025042;28;20063;-71
2021/12/13 09:24:27;;;;;;;28.08;16.67;;;10.20;99.90;;;;;;5028403;28;20041;-72
2021/12/13 09:26:56;;;;;;;25.55;17.10;;;10.20;99.90;;;;;;5028151;28;20061;-72
2021/12/13 09:29:24;;;;;;;25.25;16.77;;;10.10;99.90;;;;;;5041638;28;20515;-71
2021/12/13 09:31:51;;;;;;;29.25;17.58;;;10.20;99.90;;;;;;5047231;28;20049;-71
2021/12/13 09:34:20;;;;;;;28.42;17.48;;;10.20;99.90;;;;;;5045789;28;20588;-71
2021/12/13 09:36:50;;;;;;;27.65;16.63;;;10.20;99.90;;;;;;5038710;28;20573;-72
2021/12/13 09:39:25;;;;;;;25.50;16.48;;;10.20;99.90;;;;;;5045708;28;20063;-71
2021/12/13 09:42:01;;;;;;;27.10;16.65;;;10.20;99.90;;;;;;5048540;28;20051;-69
2021/12/13 09:44:32;;;;;;;27.35;16.63;;;10.30;99.90;;;;;;5047111;28;20136;-72
2021/12/13 09:47:13;;;;;;;25.73;17.05;;;10.20;99.90;;;;;;5039870;28;20049;-71
2021/12/13 09:49:41;;;;;;;26.08;17.13;;;10.20;99.90;;;;;;5033731;28;20041;-73
2021/12/13 09:52:13;;;;;;;27.15;16.10;;;10.20;99.90;;;;;;5040160;28;20077;-73
2021/12/13 09:55:02;;;;;;;28.00;16.70;;;10.20;99.90;;;;;;5027768;28;20060;-72
2021/12/13 09:57:43;;;;;;;26.15;16.48;;;10.30;99.90;;;;;;5027420;28;20057;-70
2021/12/13 10:00:18;;;;;;;26.55;16.63;;;10.30;99.90;;;;;;5027895;28;20057;-71
2021/12/13 10:02:48;;;;;;;24.25;15.90;;;10.30;99.90;;;;;;5048512;28;20045;-71
2021/12/13 10:05:19;;;;;;;24.60;15.80;;;10.30;99.90;;;;;;5031635;28;20057;-71
2021/12/13 10:07:54;;;;;;;27.30;16.27;;;10.30;99.90;;;;;;5049610;28;20057;-71
2021/12/13 10:10:28;;;;;;;26.25;15.80;;;10.30;99.90;;;;;;5025251;28;20053;-70
2021/12/13 10:12:59;;;;;;;23.92;14.70;;;10.30;99.90;;;;;;5051173;28;20155;-70
2021/12/13 10:15:34;;;;;;;23.25;15.10;;;10.30;99.90;;;;;;5033786;28;20067;-70
2021/12/13 10:18:07;;;;;;;22.95;14.77;;;10.30;99.90;;;;;;5050939;28;20048;-70
2021/12/13 10:20:39;;;;;;;24.17;15.23;;;10.30;99.90;;;;;;5042433;28;20150;-70
2021/12/13 10:23:10;;;;;;;23.40;14.75;;;10.30;99.90;;;;;;5029227;28;20049;-69
2021/12/13 10:25:40;;;;;;;26.13;14.95;;;10.30;99.90;;;;;;5029261;28;20441;-70
2021/12/13 10:28:09;;;;;;;26.17;15.15;;;10.30;99.90;;;;;;5030727;28;20084;-70
2021/12/13 10:30:49;;;;;;;23.65;14.10;;;10.30;99.90;;;;;;5049852;28;20067;-70
2021/12/13 10:33:18;;;;;;;26.05;15.18;;;10.30;99.90;;;;;;5037843;28;20060;-72
2021/12/13 10:35:45;;;;;;;23.20;13.77;;;10.30;99.90;;;;;;5032053;28;20114;-71
2021/12/13 10:38:19;;;;;;;22.83;15.20;;;10.30;99.90;;;;;;5036149;28;20041;-70
2021/12/13 10:40:53;;;;;;;28.10;14.48;;;10.30;99.90;;;;;;5030999;28;20049;-70
2021/12/13 10:43:23;;;;;;;20.52;13.63;;;10.30;99.90;;;;;;5038677;28;20045;-71
2021/12/13 10:45:57;;;;;;;24.17;13.35;;;10.30;99.90;;;;;;5039915;28;20042;-71
2021/12/13 10:48:29;;;;;;;25.48;14.95;;;10.40;99.90;;;;;;5029937;28;20108;-70
2021/12/13 10:51:07;;;;;;;25.17;15.02;;;10.40;99.90;;;;;;5027328;28;20057;-71
2021/12/13 10:53:36;;;;;;;23.00;14.00;;;10.50;99.90;;;;;;5039447;28;20056;-72
2021/12/13 10:56:12;;;;;;;21.55;14.23;;;10.50;99.90;;;;;;5037694;28;20136;-72
2021/12/13 10:58:44;;;;;;;21.10;13.40;;;10.50;99.90;;;;;;5030098;28;20479;-70
2021/12/13 11:01:14;;;;;;;24.42;14.45;;;10.50;99.90;;;;;;5028625;28;20045;-72
2021/12/13 11:03:40;;;;;;;21.20;13.40;;;10.50;99.90;;;;;;5029771;28;20068;-71
2021/12/13 11:06:08;;;;;;;23.63;14.88;;;10.50;99.90;;;;;;5043374;28;20096;-70
2021/12/13 11:08:41;;;;;;;22.08;13.18;;;10.50;99.90;;;;;;5047117;28;20052;-70
2021/12/13 11:11:17;;;;;;;22.95;13.60;;;10.50;99.90;;;;;;5041783;28;20183;-70
2021/12/13 11:13:45;;;;;;;19.55;12.77;;;10.50;99.90;;;;;;5049540;28;20060;-72
2021/12/13 11:16:20;;;;;;;19.00;13.35;;;10.60;99.90;;;;;;5048437;28;20400;-72
2021/12/13 11:18:46;;;;;;;20.30;13.75;;;10.60;99.90;;;;;;5048367;28;20045;-71
2021/12/13 11:21:17;;;;;;;18.95;12.25;;;10.50;99.90;;;;;;5042712;28;20350;-72
2021/12/13 11:23:43;;;;;;;19.20;12.50;;;10.60;99.90;;;;;;5031702;28;20067;-71
2021/12/13 11:26:15;;;;;;;20.73;13.52;;;10.60;99.90;;;;;;5030935;28;20496;-71
2021/12/13 11:28:41;;;;;;;20.05;12.77;;;10.60;99.90;;;;;;5028601;28;20125;-73
2021/12/13 11:31:47;;;;;;;21.50;13.38;;;10.60;99.90;;;;;;5029734;28;20049;-72
2021/12/13 11:34:37;;;;;;;23.23;13.02;;;10.60;99.90;;;;;;5042643;28;20069;-72
2021/12/13 11:37:11;;;;;;;20.98;13.27;;;10.60;99.90;;;;;;5028817;28;20050;-73
2021/12/13 11:40:05;;;;;;;22.38;13.40;;;10.60;99.90;;;;;;5029051;28;20145;-73
2021/12/13 11:42:52;;;;;;;19.50;12.30;;;10.60;99.90;;;;;;5047205;28;20049;-73
2021/12/13 11:45:41;;;;;;;22.23;13.35;;;10.60;99.90;;;;;;5046898;28;20049;-73
2021/12/13 11:48:10;;;;;;;21.38;13.50;;;10.60;99.90;;;;;;5035870;28;20037;-72
2021/12/13 11:51:13;;;;;;;21.48;13.70;;;10.70;99.90;;;;;;5026176;28;20049;-72
2021/12/13 11:54:00;;;;;;;21.02;13.10;;;10.70;99.90;;;;;;5026996;28;20041;-72
2021/12/13 11:56:59;;;;;;;20.25;12.80;;;10.70;99.90;;;;;;5036478;28;20037;-71
2021/12/13 11:59:58;;;;;;;19.75;13.18;;;10.70;99.90;;;;;;5045888;28;20500;-71
2021/12/13 12:02:34;;;;;;;22.23;12.85;;;10.70;99.90;;;;;;5043228;28;20052;-71
2021/12/13 12:05:30;;;;;;;18.67;12.13;;;10.70;99.90;;;;;;5041963;28;20135;-70
2021/12/13 12:08:33;;;;;;;19.73;12.10;;;10.70;99.90;;;;;;5032069;28;20045;-71
2021/12/13 12:11:17;;;;;;;22.45;12.25;;;10.70;99.90;;;;;;5043535;28;20056;-72
2021/12/13 12:14:04;;;;;;;22.60;12.65;;;10.70;99.90;;;;;;5047229;28;20404;-68
2021/12/13 12:16:42;;;;;;;21.60;12.82;;;10.70;99.90;;;;;;5036166;28;20041;-72
2021/12/13 12:19:13;;;;;;;19.98;12.63;;;10.70;99.90;;;;;;5028644;28;20042;-72
2021/12/13 12:21:52;;;;;;;19.33;12.45;;;10.70;99.90;;;;;;5042538;28;20120;-72
2021/12/13 12:24:25;;;;;;;21.67;12.10;;;10.70;99.90;;;;;;5048754;28;20064;-73
2021/12/13 12:27:03;;;;;;;22.75;12.90;;;10.80;99.90;;;;;;5014877;28;20059;-72
2021/12/13 12:29:34;;;;;;;19.75;12.68;;;10.80;99.90;;;;;;5027672;28;20081;-72
2021/12/13 12:32:08;;;;;;;23.90;14.10;;;10.90;99.90;;;;;;5044906;28;20072;-72
2021/12/13 12:34:44;;;;;;;21.20;13.30;;;10.90;99.90;;;;;;5047080;28;20052;-72
2021/12/13 12:37:31;;;;;;;21.05;12.75;;;10.90;99.90;;;;;;5046981;28;20260;-71
2021/12/13 12:40:09;;;;;;;21.20;13.35;;;10.90;99.90;;;;;;5047504;28;20124;-72
2021/12/13 12:42:37;;;;;;;25.25;14.07;;;11.00;99.90;;;;;;5032340;28;20125;-71
2021/12/13 12:45:41;;;;;;;20.83;14.00;;;11.00;99.90;;;;;;5044886;28;20052;-71
2021/12/13 12:48:12;;;;;;;21.50;13.40;;;11.00;99.90;;;;;;5026846;28;20480;-71
2021/12/13 12:51:00;;;;;;;21.63;12.65;;;11.00;99.90;;;;;;5035378;28;20037;-71
2021/12/13 12:53:41;;;;;;;18.23;12.10;;;11.00;99.90;;;;;;5034057;28;20075;-71
2021/12/13 12:56:18;;;;;;;19.85;12.50;;;11.00;99.90;;;;;;5059364;28;20128;-72
2021/12/13 12:58:54;;;;;;;19.35;12.13;;;11.00;99.90;;;;;;5029405;28;20073;-72
2021/12/13 13:01:41;;;;;;;21.02;12.32;;;11.00;99.90;;;;;;5041785;28;20052;-71
2021/12/13 13:04:23;;;;;;;22.10;13.52;;;11.00;99.90;;;;;;5044250;28;20058;-72
2021/12/13 13:07:01;;;;;;;22.23;12.80;;;10.90;99.90;;;;;;5045276;28;20402;-72
2021/12/13 13:09:47;;;;;;;18.30;12.70;;;11.00;99.90;;;;;;5047389;28;20045;-72
2021/12/13 13:12:22;;;;;;;19.80;12.50;;;11.00;99.90;;;;;;5046940;28;20151;-71
2021/12/13 13:15:28;;;;;;;20.40;12.70;;;11.00;99.90;;;;;;5028481;28;20060;-71
2021/12/13 13:18:20;;;;;;;19.52;12.02;;;11.00;99.90;;;;;;5027240;28;20508;-72
2021/12/13 13:20:53;;;;;;;21.95;12.88;;;11.00;99.90;;;;;;5021186;28;20068;-72